createdAt,value
2022-08-30T00:01:00.707Z,16.89
2022-08-30T00:03:27.553Z,16.88
2022-08-30T00:05:56.248Z,16.92
2022-08-30T00:08:23.046Z,16.94
2022-08-30T00:10:51.231Z,16.92
2022-08-30T00:13:19.579Z,16.82
2022-08-30T00:15:47.044Z,16.77
2022-08-30T00:18:15.712Z,16.74
2022-08-30T00:20:42.619Z,16.66
2022-08-30T00:23:09.267Z,16.62
2022-08-30T00:25:35.854Z,16.60
2022-08-30T00:28:02.665Z,16.60
2022-08-30T00:30:30.034Z,16.59
2022-08-30T00:32:56.515Z,16.57
2022-08-30T00:35:23.455Z,16.49
2022-08-30T00:37:50.880Z,16.47
2022-08-30T00:40:20.391Z,16.47
2022-08-30T00:42:59.250Z,16.33
2022-08-30T00:45:31.424Z,16.36
2022-08-30T00:47:58.186Z,16.30
2022-08-30T00:50:29.296Z,16.24
2022-08-30T00:53:00.210Z,16.26
2022-08-30T00:55:28.027Z,16.22
2022-08-30T00:57:59.699Z,16.17
2022-08-30T01:00:28.233Z,16.21
2022-08-30T01:02:54.929Z,16.23
2022-08-30T01:05:22.387Z,16.27
2022-08-30T01:07:48.858Z,16.28
2022-08-30T01:10:16.687Z,16.23
2022-08-30T01:12:44.850Z,16.25
2022-08-30T01:15:14.527Z,16.20
2022-08-30T01:17:43.778Z,16.17
2022-08-30T01:20:14.226Z,16.05
2022-08-30T01:22:49.714Z,16.02
2022-08-30T01:25:27.562Z,16.02
2022-08-30T01:28:01.601Z,16.02
2022-08-30T01:30:29.921Z,15.91
2022-08-30T01:32:59.575Z,15.79
2022-08-30T01:35:27.344Z,15.75
2022-08-30T01:37:54.427Z,15.69
2022-08-30T01:40:21.389Z,15.68
2022-08-30T01:42:49.008Z,15.65
2022-08-30T01:45:15.975Z,15.53
2022-08-30T01:47:42.546Z,15.59
2022-08-30T01:50:10.791Z,15.52
2022-08-30T01:52:37.268Z,15.48
2022-08-30T01:55:05.763Z,15.40
2022-08-30T01:57:32.250Z,15.45
2022-08-30T01:59:58.767Z,15.42
2022-08-30T02:02:28.532Z,15.55
2022-08-30T02:04:56.420Z,15.45
2022-08-30T02:07:25.567Z,15.45
2022-08-30T02:09:54.273Z,15.49
2022-08-30T02:12:21.053Z,15.45
2022-08-30T02:14:47.599Z,15.44
2022-08-30T02:17:17.139Z,15.43
2022-08-30T02:19:43.671Z,15.45
2022-08-30T02:22:10.559Z,15.35
2022-08-30T02:24:37.531Z,15.38
2022-08-30T02:27:04.719Z,15.38
2022-08-30T02:29:31.445Z,15.39
2022-08-30T02:31:58.028Z,15.39
2022-08-30T02:34:24.476Z,15.32
2022-08-30T02:36:51.134Z,15.35
2022-08-30T02:39:17.667Z,15.34
2022-08-30T02:41:44.128Z,15.32
2022-08-30T02:44:11.397Z,15.34
2022-08-30T02:46:38.649Z,15.33
2022-08-30T02:51:52.308Z,15.30
2022-08-30T02:54:20.154Z,15.34
2022-08-30T02:56:48.519Z,15.30
2022-08-30T02:59:16.265Z,15.31
2022-08-30T03:01:43.127Z,15.30
2022-08-30T03:04:09.989Z,15.29
2022-08-30T03:06:37.086Z,15.24
2022-08-30T03:09:04.006Z,15.28
2022-08-30T03:11:30.658Z,15.22
2022-08-30T03:13:57.119Z,15.16
2022-08-30T03:16:23.747Z,15.18
2022-08-30T03:18:50.327Z,15.13
2022-08-30T03:21:17.141Z,15.04
2022-08-30T03:23:44.238Z,15.02
2022-08-30T03:26:13.225Z,15.05
2022-08-30T03:28:39.694Z,15.06
2022-08-30T03:31:06.431Z,14.94
2022-08-30T03:33:32.880Z,14.92
2022-08-30T03:35:59.324Z,14.86
2022-08-30T03:38:26.142Z,14.83
2022-08-30T03:40:52.730Z,14.76
2022-08-30T03:43:19.316Z,14.72
2022-08-30T03:45:46.106Z,14.73
2022-08-30T03:48:13.050Z,14.71
2022-08-30T03:50:40.548Z,14.77
2022-08-30T03:53:07.676Z,14.77
2022-08-30T03:55:34.335Z,14.74
2022-08-30T03:58:00.766Z,14.74
2022-08-30T04:00:27.545Z,14.70
2022-08-30T04:02:53.990Z,14.73
2022-08-30T04:05:20.551Z,14.67
2022-08-30T04:07:47.066Z,14.71
2022-08-30T04:10:13.699Z,14.69
2022-08-30T04:12:40.219Z,14.67
2022-08-30T04:15:09.366Z,14.64
2022-08-30T04:17:36.054Z,14.67
2022-08-30T04:20:02.835Z,14.65
2022-08-30T04:22:29.294Z,14.70
2022-08-30T04:24:55.745Z,14.63
2022-08-30T04:27:22.338Z,14.65
2022-08-30T04:29:49.119Z,14.67
2022-08-30T04:32:16.694Z,14.64
2022-08-30T04:34:43.541Z,14.56
2022-08-30T04:37:10.171Z,14.60
2022-08-30T04:39:37.175Z,14.58
2022-08-30T04:42:04.231Z,14.56
2022-08-30T04:44:32.207Z,14.57
2022-08-30T04:46:59.894Z,14.48
2022-08-30T04:49:26.450Z,14.50
2022-08-30T04:51:52.935Z,14.55
2022-08-30T04:54:19.463Z,14.55
2022-08-30T04:56:45.905Z,14.57
2022-08-30T04:59:13.231Z,14.57
2022-08-30T05:01:44.626Z,14.59
2022-08-30T05:04:12.398Z,14.62
2022-08-30T05:06:38.874Z,14.60
2022-08-30T05:09:05.797Z,14.66
2022-08-30T05:11:32.313Z,14.77
2022-08-30T05:13:58.798Z,14.82
2022-08-30T05:16:25.883Z,14.87
2022-08-30T05:18:53.806Z,14.91
2022-08-30T05:21:25.468Z,15.02
2022-08-30T05:23:57.723Z,15.12
2022-08-30T05:26:33.090Z,15.07
2022-08-30T05:29:00.418Z,15.16
2022-08-30T05:31:33.046Z,15.18
2022-08-30T05:34:00.531Z,15.24
2022-08-30T05:36:31.344Z,15.33
2022-08-30T05:38:58.170Z,15.33
2022-08-30T05:41:26.490Z,15.44
2022-08-30T05:43:55.406Z,15.62
2022-08-30T05:46:22.522Z,15.66
2022-08-30T05:48:50.006Z,15.70
2022-08-30T05:51:18.490Z,16.00
2022-08-30T05:53:46.476Z,16.29
2022-08-30T05:56:16.142Z,16.48
2022-08-30T05:58:43.420Z,16.66
2022-08-30T06:01:25.862Z,16.92
2022-08-30T06:03:53.494Z,17.04
2022-08-30T06:06:20.468Z,17.12
2022-08-30T06:08:48.436Z,17.26
2022-08-30T06:11:17.060Z,17.47
2022-08-30T06:13:43.836Z,17.71
2022-08-30T06:16:15.158Z,17.78
2022-08-30T06:18:41.926Z,17.87
2022-08-30T06:21:12.200Z,17.96
2022-08-30T06:23:41.075Z,17.93
2022-08-30T06:26:08.039Z,18.09
2022-08-30T06:28:34.795Z,18.07
2022-08-30T06:31:01.380Z,18.21
2022-08-30T06:33:27.898Z,18.23
2022-08-30T06:35:59.173Z,18.56
2022-08-30T06:38:26.858Z,18.69
2022-08-30T06:40:53.297Z,18.79
2022-08-30T06:43:20.849Z,18.85
2022-08-30T06:45:47.306Z,19.04
2022-08-30T06:48:13.808Z,18.96
2022-08-30T06:50:42.101Z,19.13
2022-08-30T06:53:09.709Z,19.17
2022-08-30T06:55:36.655Z,19.46
2022-08-30T06:58:04.146Z,19.32
2022-08-30T07:00:31.092Z,19.66
2022-08-30T07:02:58.226Z,19.72
2022-08-30T07:05:24.730Z,19.61
2022-08-30T07:07:53.363Z,20.00
2022-08-30T07:10:21.422Z,20.30
2022-08-30T07:12:48.338Z,20.26
2022-08-30T07:15:15.446Z,20.50
2022-08-30T07:18:00.311Z,20.51
2022-08-30T07:20:26.966Z,20.57
2022-08-30T07:22:53.402Z,20.78
2022-08-30T07:25:20.064Z,20.60
2022-08-30T07:27:46.731Z,20.86
2022-08-30T07:30:14.082Z,21.15
2022-08-30T07:32:40.570Z,20.94
2022-08-30T07:35:07.350Z,21.05
2022-08-30T07:37:33.863Z,21.38
2022-08-30T07:40:00.510Z,21.34
2022-08-30T07:42:27.434Z,21.37
2022-08-30T07:44:56.775Z,21.24
2022-08-30T07:47:23.507Z,21.55
2022-08-30T07:49:50.044Z,21.57
2022-08-30T07:52:16.503Z,21.90
2022-08-30T07:54:43.101Z,21.84
2022-08-30T07:57:09.726Z,21.98
2022-08-30T07:59:45.321Z,21.83
2022-08-30T08:02:11.866Z,22.14
2022-08-30T08:04:38.457Z,22.22
2022-08-30T08:07:05.209Z,22.42
2022-08-30T08:09:31.906Z,22.55
2022-08-30T08:11:58.346Z,22.78
2022-08-30T08:14:24.815Z,22.52
2022-08-30T08:16:51.981Z,22.65
2022-08-30T08:19:19.606Z,22.90
2022-08-30T08:21:46.199Z,22.66
2022-08-30T08:24:12.808Z,23.26
2022-08-30T08:26:41.160Z,23.00
2022-08-30T08:29:12.083Z,23.30
2022-08-30T08:31:38.714Z,23.37
2022-08-30T08:34:06.214Z,23.64
2022-08-30T08:36:34.707Z,23.61
2022-08-30T08:39:02.375Z,23.87
2022-08-30T08:41:36.954Z,23.75
2022-08-30T08:44:14.469Z,23.95
2022-08-30T08:46:58.731Z,24.07
2022-08-30T08:49:25.332Z,24.16
2022-08-30T08:52:10.345Z,24.28
2022-08-30T08:54:39.501Z,24.37
2022-08-30T08:57:06.126Z,24.31
2022-08-30T08:59:32.599Z,24.74
2022-08-30T09:02:03.090Z,24.64
2022-08-30T09:04:37.759Z,24.74
2022-08-30T09:07:22.637Z,25.03
2022-08-30T09:09:49.227Z,25.10
2022-08-30T09:12:15.842Z,25.11
2022-08-30T09:14:55.498Z,25.29
2022-08-30T09:17:22.852Z,25.33
2022-08-30T09:19:52.354Z,25.46
2022-08-30T09:22:34.110Z,25.07
2022-08-30T09:25:12.057Z,25.42
2022-08-30T09:27:44.284Z,25.35
2022-08-30T09:30:20.530Z,25.49
2022-08-30T09:32:52.999Z,25.72
2022-08-30T09:35:25.463Z,25.73
2022-08-30T09:37:56.552Z,25.61
2022-08-30T09:40:37.497Z,25.23
2022-08-30T09:43:11.953Z,25.41
2022-08-30T09:45:41.862Z,25.27
2022-08-30T09:48:31.047Z,25.67
2022-08-30T09:51:40.515Z,25.93
2022-08-30T09:54:19.195Z,25.78
2022-08-30T09:57:34.203Z,25.80
2022-08-30T10:00:15.450Z,25.92
2022-08-30T10:03:03.350Z,26.25
2022-08-30T10:05:47.123Z,26.11
2022-08-30T10:08:28.577Z,26.20
2022-08-30T10:11:07.745Z,26.41
2022-08-30T10:13:56.714Z,26.77
2022-08-30T10:16:44.835Z,26.35
2022-08-30T10:19:25.122Z,26.36
2022-08-30T10:22:15.206Z,26.66
2022-08-30T10:24:51.869Z,26.83
2022-08-30T10:27:26.706Z,26.99
2022-08-30T10:29:59.443Z,26.77
2022-08-30T10:32:37.928Z,27.11
2022-08-30T10:35:09.770Z,27.32
2022-08-30T10:37:42.448Z,27.38
2022-08-30T10:40:44.374Z,27.38
2022-08-30T10:43:42.386Z,27.08
2022-08-30T10:46:16.585Z,27.31
2022-08-30T10:48:47.318Z,27.58
2022-08-30T10:51:26.748Z,27.57
2022-08-30T10:54:07.931Z,27.35
2022-08-30T10:56:40.449Z,27.43
2022-08-30T10:59:07.096Z,27.19
2022-08-30T11:01:38.255Z,27.47
2022-08-30T11:04:54.340Z,27.43
2022-08-30T11:07:52.571Z,27.59
2022-08-30T11:10:24.856Z,27.69
2022-08-30T11:13:10.738Z,28.18
2022-08-30T11:15:55.488Z,28.22
2022-08-30T11:18:23.578Z,28.69
2022-08-30T11:20:54.290Z,28.54
2022-08-30T11:23:32.897Z,27.99
2022-08-30T11:26:02.617Z,29.11
2022-08-30T11:28:35.783Z,28.73
2022-08-30T11:31:17.800Z,29.15
2022-08-30T11:33:48.225Z,29.38
2022-08-30T11:36:37.350Z,29.69
2022-08-30T11:39:10.572Z,29.87
2022-08-30T11:41:42.074Z,30.38
2022-08-30T11:44:22.106Z,30.05
2022-08-30T11:46:55.031Z,31.23
2022-08-30T11:49:21.441Z,30.27
2022-08-30T11:52:28.438Z,31.28
2022-08-30T11:55:33.219Z,32.06
2022-08-30T11:58:20.883Z,32.78
2022-08-30T12:00:52.670Z,32.74
2022-08-30T12:03:19.616Z,32.86
2022-08-30T12:05:52.058Z,32.76
2022-08-30T12:08:21.333Z,31.87
2022-08-30T12:11:19.700Z,32.34
2022-08-30T12:13:46.117Z,32.15
2022-08-30T12:16:19.847Z,32.47
2022-08-30T12:19:00.846Z,31.90
2022-08-30T12:21:44.020Z,31.62
2022-08-30T12:24:26.206Z,32.23
2022-08-30T12:26:54.409Z,32.18
2022-08-30T12:29:26.638Z,32.17
2022-08-30T12:31:58.220Z,31.96
2022-08-30T12:34:35.182Z,31.31
2022-08-30T12:37:04.508Z,31.78
2022-08-30T12:39:38.744Z,31.80
2022-08-30T12:42:20.775Z,32.15
2022-08-30T12:44:49.338Z,32.61
2022-08-30T12:47:21.489Z,31.77
2022-08-30T12:49:50.342Z,31.39
2022-08-30T12:52:31.694Z,30.86
2022-08-30T12:55:17.236Z,30.33
2022-08-30T12:58:05.270Z,29.90
2022-08-30T13:00:39.856Z,29.79
2022-08-30T13:03:33.800Z,29.48
2022-08-30T13:06:02.834Z,29.35
2022-08-30T13:08:50.657Z,29.04
2022-08-30T13:11:21.075Z,28.95
2022-08-30T13:14:10.063Z,29.00
2022-08-30T13:16:40.306Z,28.95
2022-08-30T13:19:33.168Z,29.13
2022-08-30T13:22:01.145Z,28.92
2022-08-30T13:24:28.546Z,28.38
2022-08-30T13:26:58.507Z,28.41
2022-08-30T13:29:27.655Z,27.94
2022-08-30T13:31:55.103Z,27.98
2022-08-30T13:34:22.785Z,27.94
2022-08-30T13:36:57.775Z,27.63
2022-08-30T13:39:25.295Z,27.41
2022-08-30T13:41:52.349Z,27.75
2022-08-30T13:44:19.261Z,27.99
2022-08-30T13:46:54.117Z,28.28
2022-08-30T13:49:44.274Z,28.66
2022-08-30T13:52:21.801Z,28.53
2022-08-30T13:54:54.398Z,28.08
2022-08-30T14:00:17.203Z,28.05
2022-08-30T14:02:49.004Z,28.03
2022-08-30T14:05:47.159Z,27.71
2022-08-30T14:08:44.542Z,27.51
2022-08-30T14:10:56.352Z,27.50
2022-08-30T14:13:23.739Z,27.50
2022-08-30T14:16:26.630Z,27.37
2022-08-30T14:18:38.549Z,27.46
2022-08-30T14:21:05.069Z,27.49
2022-08-30T14:23:32.059Z,27.25
2022-08-30T14:26:01.338Z,27.47
2022-08-30T14:28:29.938Z,27.56
2022-08-30T14:30:58.062Z,27.46
2022-08-30T14:33:25.074Z,27.68
2022-08-30T14:35:53.026Z,27.58
2022-08-30T14:38:20.296Z,27.90
2022-08-30T14:40:46.771Z,27.94
2022-08-30T14:43:14.142Z,28.03
2022-08-30T14:45:40.668Z,28.32
2022-08-30T14:48:11.421Z,28.09
2022-08-30T14:50:38.946Z,28.16
2022-08-30T14:53:06.988Z,28.26
2022-08-30T14:55:34.708Z,28.13
2022-08-30T14:58:01.306Z,28.34
2022-08-30T15:00:28.414Z,28.19
2022-08-30T15:02:54.933Z,28.18
2022-08-30T15:05:21.374Z,28.06
2022-08-30T15:07:53.214Z,28.03
2022-08-30T15:10:21.197Z,28.03
2022-08-30T15:12:49.053Z,28.05
2022-08-30T15:15:20.968Z,28.11
2022-08-30T15:17:48.891Z,27.99
2022-08-30T15:20:18.894Z,27.98
2022-08-30T15:22:46.195Z,28.01
2022-08-30T15:25:13.181Z,28.04
2022-08-30T15:27:39.703Z,28.06
2022-08-30T15:30:07.344Z,28.15
2022-08-30T15:32:33.854Z,28.03
2022-08-30T15:35:00.441Z,28.03
2022-08-30T15:37:27.298Z,27.63
2022-08-30T15:39:53.838Z,27.91
2022-08-30T15:42:20.385Z,27.79
2022-08-30T15:44:55.192Z,27.80
2022-08-30T15:47:23.236Z,27.59
2022-08-30T15:49:57.879Z,27.63
2022-08-30T15:52:25.871Z,27.51
2022-08-30T15:54:54.638Z,27.46
2022-08-30T15:57:21.654Z,27.36
2022-08-30T15:59:48.795Z,27.39
2022-08-30T16:02:15.370Z,27.25
2022-08-30T16:04:43.414Z,27.39
2022-08-30T16:07:10.062Z,27.14
2022-08-30T16:09:38.021Z,26.93
2022-08-30T16:12:06.147Z,27.05
2022-08-30T16:14:33.725Z,26.81
2022-08-30T16:17:00.982Z,26.59
2022-08-30T16:19:28.275Z,26.59
2022-08-30T16:21:55.606Z,26.52
2022-08-30T16:24:23.392Z,26.52
2022-08-30T16:26:50.035Z,26.57
2022-08-30T16:29:16.543Z,26.57
2022-08-30T16:31:44.319Z,26.41
2022-08-30T16:34:12.466Z,26.57
2022-08-30T16:36:39.630Z,26.73
2022-08-30T16:39:08.724Z,26.54
2022-08-30T16:41:37.371Z,26.57
2022-08-30T16:44:05.199Z,26.55
2022-08-30T16:46:33.457Z,26.44
2022-08-30T16:49:05.262Z,26.25
2022-08-30T16:51:34.818Z,26.21
2022-08-30T16:54:07.340Z,26.15
2022-08-30T16:56:34.916Z,26.13
2022-08-30T16:59:03.283Z,26.04
2022-08-30T17:01:34.740Z,25.97
2022-08-30T17:04:01.695Z,25.82
2022-08-30T17:06:28.429Z,25.92
2022-08-30T17:08:56.514Z,25.79
2022-08-30T17:11:24.476Z,25.68
2022-08-30T17:13:51.639Z,25.63
2022-08-30T17:16:22.536Z,25.44
2022-08-30T17:18:54.338Z,25.31
2022-08-30T17:21:20.833Z,25.32
2022-08-30T17:23:48.427Z,25.18
2022-08-30T17:26:15.975Z,25.12
2022-08-30T17:28:42.555Z,25.06
2022-08-30T17:31:10.747Z,24.89
2022-08-30T17:33:39.816Z,24.92
2022-08-30T17:36:07.318Z,24.69
2022-08-30T17:38:33.871Z,24.66
2022-08-30T17:41:08.687Z,24.53
2022-08-30T17:43:37.095Z,24.38
2022-08-30T17:46:06.333Z,24.22
2022-08-30T17:48:32.912Z,24.19
2022-08-30T17:50:59.656Z,24.07
2022-08-30T17:53:26.414Z,23.96
2022-08-30T17:55:52.876Z,23.92
2022-08-30T17:58:19.337Z,23.84
2022-08-30T18:00:48.455Z,23.75
2022-08-30T18:03:17.451Z,23.74
2022-08-30T18:05:47.004Z,23.64
2022-08-30T18:08:13.835Z,23.51
2022-08-30T18:10:40.418Z,23.46
2022-08-30T18:13:06.904Z,23.42
2022-08-30T18:15:33.871Z,23.45
2022-08-30T18:18:00.645Z,23.37
2022-08-30T18:20:27.163Z,23.40
2022-08-30T18:22:57.898Z,23.41
2022-08-30T18:25:24.410Z,23.37
2022-08-30T18:27:57.177Z,23.35
2022-08-30T18:30:33.249Z,23.25
2022-08-30T18:33:01.399Z,23.27
2022-08-30T18:35:27.878Z,23.15
2022-08-30T18:37:54.431Z,23.18
2022-08-30T18:40:21.102Z,23.15
2022-08-30T18:42:47.775Z,23.09
2022-08-30T18:45:15.641Z,23.02
2022-08-30T18:47:42.476Z,22.88
2022-08-30T18:50:09.139Z,22.80
2022-08-30T18:52:35.837Z,22.68
2022-08-30T18:55:02.478Z,22.56
2022-08-30T18:57:29.010Z,22.48
2022-08-30T18:59:57.613Z,22.39
2022-08-30T19:02:27.484Z,22.23
2022-08-30T19:04:54.717Z,22.12
2022-08-30T19:07:21.562Z,22.04
2022-08-30T19:09:53.723Z,21.99
2022-08-30T19:12:20.294Z,21.93
2022-08-30T19:14:47.595Z,21.89
2022-08-30T19:17:14.375Z,21.89
2022-08-30T19:19:48.597Z,21.76
2022-08-30T19:22:16.127Z,21.59
2022-08-30T19:24:42.631Z,21.53
2022-08-30T19:27:09.970Z,21.50
2022-08-30T19:29:36.414Z,21.30
2022-08-30T19:32:03.397Z,21.20
2022-08-30T19:34:30.319Z,21.13
2022-08-30T19:36:56.816Z,20.96
2022-08-30T19:39:23.728Z,21.02
2022-08-30T19:41:50.628Z,20.93
2022-08-30T19:44:17.142Z,21.02
2022-08-30T19:46:44.467Z,20.98
2022-08-30T19:49:11.275Z,20.99
2022-08-30T19:51:38.789Z,21.02
2022-08-30T19:54:13.303Z,21.02
2022-08-30T19:56:39.831Z,20.98
2022-08-30T19:59:06.406Z,20.98
2022-08-30T20:01:34.006Z,20.98
2022-08-30T20:04:02.062Z,20.96
2022-08-30T20:06:30.555Z,20.97
2022-08-30T20:08:58.337Z,20.93
2022-08-30T20:11:28.012Z,20.89
2022-08-30T20:13:54.548Z,20.87
2022-08-30T20:16:20.999Z,20.85
2022-08-30T20:18:59.492Z,20.84
2022-08-30T20:21:25.943Z,20.79
2022-08-30T20:23:52.398Z,20.81
2022-08-30T20:26:18.844Z,20.71
2022-08-30T20:28:45.427Z,20.61
2022-08-30T20:31:13.019Z,20.62
2022-08-30T20:33:40.406Z,20.40
2022-08-30T20:36:09.766Z,20.43
2022-08-30T20:38:36.293Z,20.31
2022-08-30T20:41:10.561Z,20.28
2022-08-30T20:43:37.684Z,20.32
2022-08-30T20:46:12.302Z,20.20
2022-08-30T20:48:39.195Z,20.21
2022-08-30T20:51:11.626Z,20.23
2022-08-30T20:53:38.511Z,20.22
2022-08-30T20:56:05.359Z,20.30
2022-08-30T20:58:31.842Z,20.26
2022-08-30T21:00:58.451Z,20.24
2022-08-30T21:03:26.346Z,20.19
2022-08-30T21:05:55.277Z,20.25
2022-08-30T21:08:21.905Z,20.26
2022-08-30T21:10:48.395Z,20.31
2022-08-30T21:13:15.429Z,20.33
2022-08-30T21:15:45.900Z,20.32
2022-08-30T21:18:14.333Z,20.30
2022-08-30T21:20:41.328Z,20.27
2022-08-30T21:23:07.855Z,20.33
2022-08-30T21:25:37.290Z,20.35
2022-08-30T21:28:03.773Z,20.18
2022-08-30T21:30:30.336Z,20.12
2022-08-30T21:33:00.003Z,20.08
2022-08-30T21:35:45.399Z,20.09
2022-08-30T21:38:11.867Z,20.08
2022-08-30T21:40:38.423Z,20.03
2022-08-30T21:43:06.203Z,20.02
2022-08-30T21:45:37.060Z,19.99
2022-08-30T21:48:04.075Z,19.85
2022-08-30T21:50:30.599Z,19.76
2022-08-30T21:52:57.062Z,19.82
2022-08-30T21:55:23.553Z,19.78
2022-08-30T21:57:50.100Z,19.78
2022-08-30T22:00:20.450Z,19.79
2022-08-30T22:02:49.214Z,19.73
2022-08-30T22:05:20.587Z,19.71
2022-08-30T22:07:47.095Z,19.75
2022-08-30T22:10:13.551Z,19.81
2022-08-30T22:12:41.345Z,19.75
2022-08-30T22:15:09.161Z,19.77
2022-08-30T22:17:35.688Z,19.72
2022-08-30T22:20:02.336Z,19.77
2022-08-30T22:22:29.087Z,19.70
2022-08-30T22:24:55.512Z,19.72
2022-08-30T22:27:21.986Z,19.74
2022-08-30T22:29:48.494Z,19.74
2022-08-30T22:32:15.077Z,19.73
2022-08-30T22:34:45.421Z,19.71
2022-08-30T22:37:11.915Z,19.71
2022-08-30T22:39:38.415Z,19.72
2022-08-30T22:42:05.241Z,19.68
2022-08-30T22:44:32.042Z,19.67
2022-08-30T22:46:58.529Z,19.65
2022-08-30T22:49:25.802Z,19.64
2022-08-30T22:51:52.269Z,19.62
2022-08-30T22:54:18.798Z,19.57
2022-08-30T22:56:45.262Z,19.50
2022-08-30T22:59:11.820Z,19.53
2022-08-30T23:01:42.858Z,19.53
2022-08-30T23:04:10.023Z,19.56
2022-08-30T23:06:36.843Z,19.56
2022-08-30T23:09:04.975Z,19.56
2022-08-30T23:11:31.843Z,19.53
2022-08-30T23:13:59.881Z,19.52
2022-08-30T23:16:26.395Z,19.54
2022-08-30T23:18:53.045Z,19.50
2022-08-30T23:21:25.309Z,19.49
2022-08-30T23:24:12.237Z,19.40
2022-08-30T23:26:58.792Z,19.37
2022-08-30T23:29:43.620Z,19.36
2022-08-30T23:32:29.194Z,19.32
2022-08-30T23:35:14.626Z,19.28
2022-08-30T23:38:00.085Z,19.19
2022-08-30T23:40:45.684Z,19.11
2022-08-30T23:43:31.354Z,19.13
2022-08-30T23:46:19.126Z,19.06
2022-08-30T23:49:08.509Z,18.98
2022-08-30T23:51:55.976Z,19.01
2022-08-30T23:54:42.366Z,19.02
2022-08-30T23:57:27.884Z,18.98
